sensor_id;sensor_type;location;lat;lon;timestamp;pressure;altitude;pressure_sealevel;temperature;humidity
2675;BME280;1347;42.122;24.746;2023-04-25T00:02:03;98811.34;;;14.05;100.00
2675;BME280;1347;42.122;24.746;2023-04-25T00:04:30;98808.16;;;14.10;100.00
2675;BME280;1347;42.122;24.746;2023-04-25T00:06:59;98798.72;;;14.11;100.00
2675;BME280;1347;42.122;24.746;2023-04-25T00:09:28;98801.00;;;14.16;100.00
2675;BME280;1347;42.122;24.746;2023-04-25T00:11:55;98796.38;;;14.10;100.00
2675;BME280;1347;42.122;24.746;2023-04-25T00:14:21;98793.19;;;14.11;100.00
2675;BME280;1347;42.122;24.746;2023-04-25T00:16:49;98788.78;;;14.17;100.00
2675;BME280;1347;42.122;24.746;2023-04-25T00:19:17;98790.06;;;14.09;100.00
2675;BME280;1347;42.122;24.746;2023-04-25T00:21:44;98797.56;;;14.09;100.00
2675;BME280;1347;42.122;24.746;2023-04-25T00:24:13;98791.16;;;14.15;100.00
2675;BME280;1347;42.122;24.746;2023-04-25T00:26:40;98795.88;;;14.18;100.00
2675;BME280;1347;42.122;24.746;2023-04-25T00:29:06;98785.66;;;14.15;100.00
2675;BME280;1347;42.122;24.746;2023-04-25T00:31:33;98778.56;;;14.18;100.00
2675;BME280;1347;42.122;24.746;2023-04-25T00:34:00;98773.53;;;14.09;100.00
2675;BME280;1347;42.122;24.746;2023-04-25T00:36:27;98773.94;;;14.08;100.00
2675;BME280;1347;42.122;24.746;2023-04-25T00:38:55;98771.25;;;14.04;100.00
2675;BME280;1347;42.122;24.746;2023-04-25T00:41:24;98772.84;;;14.02;100.00
2675;BME280;1347;42.122;24.746;2023-04-25T00:43:52;98773.28;;;13.96;100.00
2675;BME280;1347;42.122;24.746;2023-04-25T00:46:20;98772.19;;;13.87;100.00
2675;BME280;1347;42.122;24.746;2023-04-25T00:48:47;98775.31;;;13.92;100.00
2675;BME280;1347;42.122;24.746;2023-04-25T00:51:16;98770.03;;;13.68;100.00
2675;BME280;1347;42.122;24.746;2023-04-25T00:53:45;98770.50;;;13.59;100.00
2675;BME280;1347;42.122;24.746;2023-04-25T00:56:13;98772.34;;;13.73;100.00
2675;BME280;1347;42.122;24.746;2023-04-25T00:58:42;98774.66;;;13.78;100.00
2675;BME280;1347;42.122;24.746;2023-04-25T01:01:10;98779.72;;;13.83;100.00
2675;BME280;1347;42.122;24.746;2023-04-25T01:03:38;98772.28;;;13.80;100.00
2675;BME280;1347;42.122;24.746;2023-04-25T01:06:07;98764.50;;;13.71;100.00
2675;BME280;1347;42.122;24.746;2023-04-25T01:08:36;98773.16;;;13.70;100.00
2675;BME280;1347;42.122;24.746;2023-04-25T01:11:03;98786.16;;;13.69;100.00
2675;BME280;1347;42.122;24.746;2023-04-25T01:13:31;98790.53;;;13.63;100.00
2675;BME280;1347;42.122;24.746;2023-04-25T01:16:00;98789.03;;;13.55;100.00
2675;BME280;1347;42.122;24.746;2023-04-25T01:18:27;98784.63;;;13.16;100.00
2675;BME280;1347;42.122;24.746;2023-04-25T01:20:54;98785.38;;;13.13;100.00
2675;BME280;1347;42.122;24.746;2023-04-25T01:23:23;98796.06;;;13.08;100.00
2675;BME280;1347;42.122;24.746;2023-04-25T01:25:50;98783.56;;;12.96;100.00
2675;BME280;1347;42.122;24.746;2023-04-25T01:28:17;98771.59;;;13.24;100.00
2675;BME280;1347;42.122;24.746;2023-04-25T01:30:45;98775.88;;;13.32;100.00
2675;BME280;1347;42.122;24.746;2023-04-25T01:33:14;98769.88;;;13.41;100.00
2675;BME280;1347;42.122;24.746;2023-04-25T01:35:41;98766.66;;;13.49;100.00
2675;BME280;1347;42.122;24.746;2023-04-25T01:38:08;98771.28;;;13.59;100.00
2675;BME280;1347;42.122;24.746;2023-04-25T01:40:38;98775.22;;;13.62;100.00
2675;BME280;1347;42.122;24.746;2023-04-25T01:43:06;98776.34;;;13.64;100.00
2675;BME280;1347;42.122;24.746;2023-04-25T01:45:36;98779.72;;;13.42;100.00
2675;BME280;1347;42.122;24.746;2023-04-25T01:48:05;98787.75;;;13.22;100.00
2675;BME280;1347;42.122;24.746;2023-04-25T01:50:32;98774.31;;;13.27;100.00
2675;BME280;1347;42.122;24.746;2023-04-25T01:52:59;98775.56;;;13.19;100.00
2675;BME280;1347;42.122;24.746;2023-04-25T01:55:27;98762.06;;;13.36;100.00
2675;BME280;1347;42.122;24.746;2023-04-25T01:57:55;98757.03;;;13.23;100.00
2675;BME280;1347;42.122;24.746;2023-04-25T02:00:22;98753.41;;;13.37;100.00
2675;BME280;1347;42.122;24.746;2023-04-25T02:02:49;98769.06;;;13.44;100.00
2675;BME280;1347;42.122;24.746;2023-04-25T02:05:18;98769.03;;;13.47;100.00
2675;BME280;1347;42.122;24.746;2023-04-25T02:07:47;98759.34;;;13.32;100.00
2675;BME280;1347;42.122;24.746;2023-04-25T02:10:13;98765.75;;;13.15;100.00
2675;BME280;1347;42.122;24.746;2023-04-25T02:12:40;98762.22;;;13.14;100.00
2675;BME280;1347;42.122;24.746;2023-04-25T02:15:09;98756.69;;;13.21;100.00
2675;BME280;1347;42.122;24.746;2023-04-25T02:17:37;98755.41;;;13.33;100.00
2675;BME280;1347;42.122;24.746;2023-04-25T02:20:05;98763.19;;;13.42;100.00
2675;BME280;1347;42.122;24.746;2023-04-25T02:22:32;98763.94;;;13.46;100.00
2675;BME280;1347;42.122;24.746;2023-04-25T02:25:01;98757.63;;;13.49;100.00
2675;BME280;1347;42.122;24.746;2023-04-25T02:27:27;98760.34;;;13.52;100.00
2675;BME280;1347;42.122;24.746;2023-04-25T02:29:54;98756.75;;;13.55;100.00
2675;BME280;1347;42.122;24.746;2023-04-25T02:32:23;98749.34;;;13.52;100.00
2675;BME280;1347;42.122;24.746;2023-04-25T02:34:50;98751.91;;;13.29;100.00
2675;BME280;1347;42.122;24.746;2023-04-25T02:37:17;98754.16;;;13.41;100.00
2675;BME280;1347;42.122;24.746;2023-04-25T02:39:43;98744.97;;;13.55;100.00
2675;BME280;1347;42.122;24.746;2023-04-25T02:42:10;98741.06;;;13.52;100.00
2675;BME280;1347;42.122;24.746;2023-04-25T02:44:37;98741.06;;;13.52;100.00
2675;BME280;1347;42.122;24.746;2023-04-25T02:47:04;98735.91;;;13.58;100.00
2675;BME280;1347;42.122;24.746;2023-04-25T02:49:32;98744.91;;;13.62;100.00
2675;BME280;1347;42.122;24.746;2023-04-25T02:51:59;98748.84;;;13.61;100.00
2675;BME280;1347;42.122;24.746;2023-04-25T02:54:26;98751.63;;;13.57;100.00
2675;BME280;1347;42.122;24.746;2023-04-25T02:56:53;98761.13;;;13.53;100.00
2675;BME280;1347;42.122;24.746;2023-04-25T02:59:20;98758.38;;;13.53;100.00
2675;BME280;1347;42.122;24.746;2023-04-25T03:01:46;98755.25;;;13.51;100.00
2675;BME280;1347;42.122;24.746;2023-04-25T03:04:13;98763.16;;;13.45;100.00
2675;BME280;1347;42.122;24.746;2023-04-25T03:06:42;98765.00;;;13.07;100.00
2675;BME280;1347;42.122;24.746;2023-04-25T03:09:08;98764.56;;;13.16;100.00
2675;BME280;1347;42.122;24.746;2023-04-25T03:11:36;98764.97;;;13.18;100.00
2675;BME280;1347;42.122;24.746;2023-04-25T03:14:03;98764.19;;;13.14;100.00
2675;BME280;1347;42.122;24.746;2023-04-25T03:16:30;98768.13;;;13.13;100.00
2675;BME280;1347;42.122;24.746;2023-04-25T03:18:57;98770.88;;;13.16;100.00
2675;BME280;1347;42.122;24.746;2023-04-25T03:21:24;98774.41;;;13.17;100.00
2675;BME280;1347;42.122;24.746;2023-04-25T03:23:53;98776.31;;;13.23;100.00
2675;BME280;1347;42.122;24.746;2023-04-25T03:26:20;98770.50;;;13.07;100.00
2675;BME280;1347;42.122;24.746;2023-04-25T03:28:47;98767.31;;;13.16;100.00
2675;BME280;1347;42.122;24.746;2023-04-25T03:31:14;98766.94;;;13.14;100.00
2675;BME280;1347;42.122;24.746;2023-04-25T03:33:41;98755.94;;;13.14;100.00
2675;BME280;1347;42.122;24.746;2023-04-25T03:36:08;98749.25;;;13.11;100.00
2675;BME280;1347;42.122;24.746;2023-04-25T03:38:35;98744.50;;;13.19;100.00
2675;BME280;1347;42.122;24.746;2023-04-25T03:41:03;98741.34;;;13.20;100.00
2675;BME280;1347;42.122;24.746;2023-04-25T03:43:30;98740.91;;;13.25;100.00
2675;BME280;1347;42.122;24.746;2023-04-25T03:45:57;98739.00;;;13.22;100.00
2675;BME280;1347;42.122;24.746;2023-04-25T03:48:25;98729.19;;;13.18;100.00
2675;BME280;1347;42.122;24.746;2023-04-25T03:50:52;98735.09;;;13.16;100.00
2675;BME280;1347;42.122;24.746;2023-04-25T03:53:19;98735.06;;;13.20;100.00
2675;BME280;1347;42.122;24.746;2023-04-25T03:55:46;98729.59;;;13.16;100.00
2675;BME280;1347;42.122;24.746;2023-04-25T03:58:14;98733.53;;;13.15;100.00
2675;BME280;1347;42.122;24.746;2023-04-25T04:00:41;98722.03;;;13.24;100.00
2675;BME280;1347;42.122;24.746;2023-04-25T04:03:08;98721.31;;;13.20;100.00
2675;BME280;1347;42.122;24.746;2023-04-25T04:05:36;98725.56;;;13.24;100.00
2675;BME280;1347;42.122;24.746;2023-04-25T04:08:06;98723.66;;;13.21;100.00
2675;BME280;1347;42.122;24.746;2023-04-25T04:10:33;98729.16;;;13.21;100.00
2675;BME280;1347;42.122;24.746;2023-04-25T04:13:00;98714.63;;;13.17;100.00
2675;BME280;1347;42.122;24.746;2023-04-25T04:15:29;98722.13;;;13.17;100.00
2675;BME280;1347;42.122;24.746;2023-04-25T04:17:58;98731.16;;;13.17;100.00
2675;BME280;1347;42.122;24.746;2023-04-25T04:20:28;98732.31;;;13.20;100.00
2675;BME280;1347;42.122;24.746;2023-04-25T04:22:56;98734.72;;;13.14;100.00
2675;BME280;1347;42.122;24.746;2023-04-25T04:25:23;98738.53;;;13.27;100.00
2675;BME280;1347;42.122;24.746;2023-04-25T04:27:50;98734.94;;;13.34;100.00
2675;BME280;1347;42.122;24.746;2023-04-25T04:30:20;98740.69;;;13.50;100.00
2675;BME280;1347;42.122;24.746;2023-04-25T04:32:50;98741.72;;;13.67;100.00
2675;BME280;1347;42.122;24.746;2023-04-25T04:35:17;98746.25;;;13.84;100.00
2675;BME280;1347;42.122;24.746;2023-04-25T04:37:44;98740.44;;;13.75;100.00
2675;BME280;1347;42.122;24.746;2023-04-25T04:40:12;98727.94;;;13.67;100.00
2675;BME280;1347;42.122;24.746;2023-04-25T04:42:41;98739.84;;;13.94;100.00
2675;BME280;1347;42.122;24.746;2023-04-25T04:45:09;98742.59;;;13.94;100.00
2675;BME280;1347;42.122;24.746;2023-04-25T04:47:36;98739.09;;;13.53;100.00
2675;BME280;1347;42.122;24.746;2023-04-25T04:50:07;98744.06;;;13.69;100.00
2675;BME280;1347;42.122;24.746;2023-04-25T04:52:34;98737.69;;;13.34;100.00
2675;BME280;1347;42.122;24.746;2023-04-25T04:55:02;98751.19;;;13.18;100.00
2675;BME280;1347;42.122;24.746;2023-04-25T04:57:29;98752.56;;;12.92;100.00
2675;BME280;1347;42.122;24.746;2023-04-25T04:59:56;98753.28;;;12.96;100.00
2675;BME280;1347;42.122;24.746;2023-04-25T05:02:23;98751.38;;;12.89;100.00
2675;BME280;1347;42.122;24.746;2023-04-25T05:04:50;98756.47;;;12.91;100.00
2675;BME280;1347;42.122;24.746;2023-04-25T05:07:18;98748.31;;;12.73;100.00
2675;BME280;1347;42.122;24.746;2023-04-25T05:09:45;98746.34;;;12.77;100.00
2675;BME280;1347;42.122;24.746;2023-04-25T05:12:12;98747.97;;;12.71;100.00
2675;BME280;1347;42.122;24.746;2023-04-25T05:14:39;98749.09;;;12.81;100.00
2675;BME280;1347;42.122;24.746;2023-04-25T05:17:06;98749.03;;;12.88;100.00
2675;BME280;1347;42.122;24.746;2023-04-25T05:19:34;98747.06;;;12.92;100.00
2675;BME280;1347;42.122;24.746;2023-04-25T05:22:01;98750.16;;;12.94;100.00
2675;BME280;1347;42.122;24.746;2023-04-25T05:24:29;98746.66;;;12.90;100.00
2675;BME280;1347;42.122;24.746;2023-04-25T05:26:57;98743.44;;;13.02;100.00
2675;BME280;1347;42.122;24.746;2023-04-25T05:29:24;98752.13;;;12.94;100.00
2675;BME280;1347;42.122;24.746;2023-04-25T05:31:50;98745.84;;;13.45;100.00
2675;BME280;1347;42.122;24.746;2023-04-25T05:34:18;98746.81;;;13.69;100.00
2675;BME280;1347;42.122;24.746;2023-04-25T05:36:45;98743.63;;;14.08;100.00
2675;BME280;1347;42.122;24.746;2023-04-25T05:39:14;98748.38;;;14.41;100.00
2675;BME280;1347;42.122;24.746;2023-04-25T05:41:42;98746.56;;;14.58;100.00
2675;BME280;1347;42.122;24.746;2023-04-25T05:44:09;98748.47;;;14.91;100.00
2675;BME280;1347;42.122;24.746;2023-04-25T05:46:36;98745.13;;;15.03;100.00
2675;BME280;1347;42.122;24.746;2023-04-25T05:49:03;98750.09;;;15.12;100.00
2675;BME280;1347;42.122;24.746;2023-04-25T05:51:30;98753.72;;;15.32;100.00
2675;BME280;1347;42.122;24.746;2023-04-25T05:53:57;98746.97;;;15.60;100.00
2675;BME280;1347;42.122;24.746;2023-04-25T05:56:23;98754.50;;;15.79;100.00
2675;BME280;1347;42.122;24.746;2023-04-25T05:58:52;98748.66;;;15.97;100.00
2675;BME280;1347;42.122;24.746;2023-04-25T06:01:19;98746.16;;;16.23;100.00
2675;BME280;1347;42.122;24.746;2023-04-25T06:03:46;98742.63;;;15.59;100.00
2675;BME280;1347;42.122;24.746;2023-04-25T06:06:13;98746.75;;;15.24;100.00
2675;BME280;1347;42.122;24.746;2023-04-25T06:08:40;98746.97;;;15.60;100.00
2675;BME280;1347;42.122;24.746;2023-04-25T06:11:07;98748.00;;;16.09;100.00
2675;BME280;1347;42.122;24.746;2023-04-25T06:13:33;98749.03;;;16.75;100.00
2675;BME280;1347;42.122;24.746;2023-04-25T06:16:02;98747.16;;;16.12;100.00
2675;BME280;1347;42.122;24.746;2023-04-25T06:18:29;98749.34;;;16.97;98.34
2675;BME280;1347;42.122;24.746;2023-04-25T06:20:56;98743.00;;;17.45;97.21
2675;BME280;1347;42.122;24.746;2023-04-25T06:23:22;98738.97;;;17.94;93.36
2675;BME280;1347;42.122;24.746;2023-04-25T06:25:49;98738.75;;;18.01;90.57
2675;BME280;1347;42.122;24.746;2023-04-25T06:28:16;98738.88;;;17.37;92.70
2675;BME280;1347;42.122;24.746;2023-04-25T06:30:43;98742.78;;;17.39;90.65
2675;BME280;1347;42.122;24.746;2023-04-25T06:33:11;98744.13;;;17.31;89.07
2675;BME280;1347;42.122;24.746;2023-04-25T06:35:38;98732.97;;;17.35;89.82
2675;BME280;1347;42.122;24.746;2023-04-25T06:38:05;98733.66;;;17.55;90.14
2675;BME280;1347;42.122;24.746;2023-04-25T06:40:32;98726.88;;;17.72;87.60
2675;BME280;1347;42.122;24.746;2023-04-25T06:42:59;98730.00;;;18.45;86.90
2675;BME280;1347;42.122;24.746;2023-04-25T06:45:26;98725.06;;;18.65;84.83
2675;BME280;1347;42.122;24.746;2023-04-25T06:47:53;98733.44;;;18.36;84.30
2675;BME280;1347;42.122;24.746;2023-04-25T06:50:21;98733.44;;;18.36;83.53
2675;BME280;1347;42.122;24.746;2023-04-25T06:52:48;98728.84;;;18.71;83.15
2675;BME280;1347;42.122;24.746;2023-04-25T06:55:15;98738.94;;;19.16;81.00
2675;BME280;1347;42.122;24.746;2023-04-25T06:57:42;98737.69;;;20.11;79.68
2675;BME280;1347;42.122;24.746;2023-04-25T07:00:09;98736.03;;;20.13;77.18
2675;BME280;1347;42.122;24.746;2023-04-25T07:02:36;98744.13;;;20.42;75.02
2675;BME280;1347;42.122;24.746;2023-04-25T07:05:04;98749.03;;;20.38;73.37
2675;BME280;1347;42.122;24.746;2023-04-25T07:07:32;98735.94;;;20.26;72.52
2675;BME280;1347;42.122;24.746;2023-04-25T07:09:59;98732.78;;;20.37;76.45
2675;BME280;1347;42.122;24.746;2023-04-25T07:12:26;98735.59;;;20.68;75.47
2675;BME280;1347;42.122;24.746;2023-04-25T07:14:53;98742.88;;;20.96;73.22
2675;BME280;1347;42.122;24.746;2023-04-25T07:17:20;98734.94;;;21.35;71.28
2675;BME280;1347;42.122;24.746;2023-04-25T07:19:47;98735.63;;;21.75;68.66
2675;BME280;1347;42.122;24.746;2023-04-25T07:22:14;98722.94;;;22.71;67.07
2675;BME280;1347;42.122;24.746;2023-04-25T07:24:42;98728.72;;;23.66;64.48
2675;BME280;1347;42.122;24.746;2023-04-25T07:27:12;98725.69;;;24.47;63.88
2675;BME280;1347;42.122;24.746;2023-04-25T07:29:39;98716.94;;;25.39;58.58
2675;BME280;1347;42.122;24.746;2023-04-25T07:32:07;98721.81;;;25.99;57.06
2675;BME280;1347;42.122;24.746;2023-04-25T07:34:35;98716.22;;;26.25;55.47
2675;BME280;1347;42.122;24.746;2023-04-25T07:37:04;98713.69;;;26.27;55.42
2675;BME280;1347;42.122;24.746;2023-04-25T07:39:31;98718.63;;;26.63;54.05
2675;BME280;1347;42.122;24.746;2023-04-25T07:41:59;98718.81;;;25.82;55.52
2675;BME280;1347;42.122;24.746;2023-04-25T07:44:27;98708.97;;;26.18;54.69
2675;BME280;1347;42.122;24.746;2023-04-25T07:46:55;98714.13;;;26.77;53.55
2675;BME280;1347;42.122;24.746;2023-04-25T07:49:23;98706.47;;;27.09;52.77
2675;BME280;1347;42.122;24.746;2023-04-25T07:51:49;98701.38;;;28.26;49.78
2675;BME280;1347;42.122;24.746;2023-04-25T07:54:17;98707.38;;;29.75;42.03
2675;BME280;1347;42.122;24.746;2023-04-25T07:56:44;98695.47;;;27.54;45.63
2675;BME280;1347;42.122;24.746;2023-04-25T07:59:12;98693.31;;;29.58;43.88
2675;BME280;1347;42.122;24.746;2023-04-25T08:01:39;98693.63;;;29.49;43.21
2675;BME280;1347;42.122;24.746;2023-04-25T08:04:06;98700.56;;;31.07;42.17
2675;BME280;1347;42.122;24.746;2023-04-25T08:06:33;98700.06;;;32.51;40.23
2675;BME280;1347;42.122;24.746;2023-04-25T08:09:00;98710.13;;;33.42;38.46
2675;BME280;1347;42.122;24.746;2023-04-25T08:11:27;98710.00;;;34.89;36.59
2675;BME280;1347;42.122;24.746;2023-04-25T08:13:54;98717.63;;;37.20;32.12
2675;BME280;1347;42.122;24.746;2023-04-25T08:16:22;98727.31;;;39.50;30.63
2675;BME280;1347;42.122;24.746;2023-04-25T08:18:50;98718.84;;;41.01;28.67
2675;BME280;1347;42.122;24.746;2023-04-25T08:21:17;98714.97;;;40.26;29.01
2675;BME280;1347;42.122;24.746;2023-04-25T08:23:44;98706.69;;;41.39;27.77
2675;BME280;1347;42.122;24.746;2023-04-25T08:26:11;98719.81;;;40.50;27.84
2675;BME280;1347;42.122;24.746;2023-04-25T08:28:38;98709.81;;;39.21;28.61
2675;BME280;1347;42.122;24.746;2023-04-25T08:31:05;98705.03;;;39.23;27.08
2675;BME280;1347;42.122;24.746;2023-04-25T08:33:34;98712.69;;;36.82;30.31
2675;BME280;1347;42.122;24.746;2023-04-25T08:36:01;98703.16;;;36.72;29.65
2675;BME280;1347;42.122;24.746;2023-04-25T08:38:28;98703.34;;;34.87;30.52
2675;BME280;1347;42.122;24.746;2023-04-25T08:40:57;98699.56;;;28.40;39.98
2675;BME280;1347;42.122;24.746;2023-04-25T08:43:26;98697.19;;;26.97;42.91
2675;BME280;1347;42.122;24.746;2023-04-25T08:45:59;98697.06;;;28.98;40.33
2675;BME280;1347;42.122;24.746;2023-04-25T08:48:27;98698.34;;;28.58;40.82
2675;BME280;1347;42.122;24.746;2023-04-25T08:50:56;98700.91;;;27.57;46.81
2675;BME280;1347;42.122;24.746;2023-04-25T08:53:26;98706.56;;;26.57;49.14
2675;BME280;1347;42.122;24.746;2023-04-25T08:55:54;98711.47;;;26.11;52.56
2675;BME280;1347;42.122;24.746;2023-04-25T08:58:21;98709.44;;;24.95;55.79
2675;BME280;1347;42.122;24.746;2023-04-25T09:00:50;98698.34;;;24.56;54.87
2675;BME280;1347;42.122;24.746;2023-04-25T09:03:17;98707.34;;;24.46;55.79
2675;BME280;1347;42.122;24.746;2023-04-25T09:05:44;98704.78;;;24.04;58.05
2675;BME280;1347;42.122;24.746;2023-04-25T09:08:12;98701.50;;;23.67;58.94
2675;BME280;1347;42.122;24.746;2023-04-25T09:10:40;98699.28;;;22.90;62.14
2675;BME280;1347;42.122;24.746;2023-04-25T09:13:08;98698.03;;;22.58;64.53
2675;BME280;1347;42.122;24.746;2023-04-25T09:15:47;98690.91;;;23.23;60.19
2675;BME280;1347;42.122;24.746;2023-04-25T09:18:22;98699.53;;;23.34;57.89
2675;BME280;1347;42.122;24.746;2023-04-25T09:20:51;98700.84;;;22.91;58.46
2675;BME280;1347;42.122;24.746;2023-04-25T09:23:20;98693.19;;;23.01;58.89
2675;BME280;1347;42.122;24.746;2023-04-25T09:25:48;98693.81;;;23.76;56.48
2675;BME280;1347;42.122;24.746;2023-04-25T09:28:15;98688.28;;;23.43;56.69
2675;BME280;1347;42.122;24.746;2023-04-25T09:30:43;98691.56;;;24.19;54.96
2675;BME280;1347;42.122;24.746;2023-04-25T09:33:12;98694.38;;;26.34;49.87
2675;BME280;1347;42.122;24.746;2023-04-25T09:35:40;98695.00;;;28.81;44.26
2675;BME280;1347;42.122;24.746;2023-04-25T09:38:11;98697.41;;;30.86;40.61
2675;BME280;1347;42.122;24.746;2023-04-25T09:40:41;98686.25;;;28.51;43.28
2675;BME280;1347;42.122;24.746;2023-04-25T09:43:18;98690.53;;;30.82;39.52
2675;BME280;1347;42.122;24.746;2023-04-25T09:45:46;98685.69;;;29.25;41.60
2675;BME280;1347;42.122;24.746;2023-04-25T09:48:17;98682.81;;;34.26;35.46
2675;BME280;1347;42.122;24.746;2023-04-25T09:50:45;98687.66;;;34.05;34.04
2675;BME280;1347;42.122;24.746;2023-04-25T09:53:12;98678.88;;;32.01;37.56
2675;BME280;1347;42.122;24.746;2023-04-25T09:55:41;98677.84;;;35.30;33.48
2675;BME280;1347;42.122;24.746;2023-04-25T09:58:10;98675.13;;;34.21;33.67
2675;BME280;1347;42.122;24.746;2023-04-25T10:00:38;98668.03;;;34.48;33.69
2675;BME280;1347;42.122;24.746;2023-04-25T10:03:06;98652.91;;;31.35;36.45
2675;BME280;1347;42.122;24.746;2023-04-25T10:05:34;98648.41;;;30.97;37.18
2675;BME280;1347;42.122;24.746;2023-04-25T10:08:03;98639.25;;;32.14;35.63
2675;BME280;1347;42.122;24.746;2023-04-25T10:10:30;98637.66;;;31.63;36.31
2675;BME280;1347;42.122;24.746;2023-04-25T10:13:04;98637.59;;;32.38;35.44
2675;BME280;1347;42.122;24.746;2023-04-25T10:15:34;98641.41;;;31.03;36.49
2675;BME280;1347;42.122;24.746;2023-04-25T10:18:02;98625.06;;;32.78;34.54
2675;BME280;1347;42.122;24.746;2023-04-25T10:20:29;98625.28;;;32.35;34.33
2675;BME280;1347;42.122;24.746;2023-04-25T10:23:01;98603.78;;;31.89;34.71
2675;BME280;1347;42.122;24.746;2023-04-25T10:25:30;98605.81;;;36.47;30.67
2675;BME280;1347;42.122;24.746;2023-04-25T10:27:59;98610.94;;;39.91;26.46
2675;BME280;1347;42.122;24.746;2023-04-25T10:30:28;98604.88;;;38.01;27.96
2675;BME280;1347;42.122;24.746;2023-04-25T10:32:55;98604.22;;;36.01;29.47
2675;BME280;1347;42.122;24.746;2023-04-25T10:35:25;98591.16;;;37.59;28.57
2675;BME280;1347;42.122;24.746;2023-04-25T10:38:04;98576.28;;;42.25;25.46
2675;BME280;1347;42.122;24.746;2023-04-25T10:40:32;98572.09;;;42.79;24.18
2675;BME280;1347;42.122;24.746;2023-04-25T10:46:17;98561.16;;;38.58;26.92
2675;BME280;1347;42.122;24.746;2023-04-25T10:48:48;98560.50;;;33.45;31.61
2675;BME280;1347;42.122;24.746;2023-04-25T10:51:20;98550.03;;;31.27;33.29
2675;BME280;1347;42.122;24.746;2023-04-25T10:53:57;98550.78;;;31.09;33.18
2675;BME280;1347;42.122;24.746;2023-04-25T10:56:26;98551.38;;;32.86;30.98
2675;BME280;1347;42.122;24.746;2023-04-25T10:59:04;98541.50;;;34.28;30.14
2675;BME280;1347;42.122;24.746;2023-04-25T11:01:38;98538.13;;;35.66;28.45
2675;BME280;1347;42.122;24.746;2023-04-25T11:04:05;98539.34;;;30.17;33.24
2675;BME280;1347;42.122;24.746;2023-04-25T11:06:54;98531.94;;;31.87;32.06
2675;BME280;1347;42.122;24.746;2023-04-25T11:09:23;98524.38;;;31.20;32.42
2675;BME280;1347;42.122;24.746;2023-04-25T11:11:53;98522.13;;;29.44;35.37
2675;BME280;1347;42.122;24.746;2023-04-25T11:14:20;98520.22;;;27.87;38.25
2675;BME280;1347;42.122;24.746;2023-04-25T11:16:52;98512.53;;;28.20;40.46
2675;BME280;1347;42.122;24.746;2023-04-25T11:19:20;98507.91;;;27.90;41.05
2675;BME280;1347;42.122;24.746;2023-04-25T11:21:46;98522.16;;;28.75;37.48
2675;BME280;1347;42.122;24.746;2023-04-25T11:24:13;98504.84;;;28.27;39.51
2675;BME280;1347;42.122;24.746;2023-04-25T11:26:41;98497.50;;;27.03;40.74
2675;BME280;1347;42.122;24.746;2023-04-25T11:29:08;98500.75;;;26.90;41.38
2675;BME280;1347;42.122;24.746;2023-04-25T11:31:35;98497.75;;;26.99;40.67
2675;BME280;1347;42.122;24.746;2023-04-25T11:34:04;98488.03;;;26.95;42.35
2675;BME280;1347;42.122;24.746;2023-04-25T11:36:31;98481.53;;;27.93;41.85
2675;BME280;1347;42.122;24.746;2023-04-25T11:38:57;98483.09;;;26.84;43.52
2675;BME280;1347;42.122;24.746;2023-04-25T11:41:25;98482.06;;;26.82;43.75
2675;BME280;1347;42.122;24.746;2023-04-25T11:43:52;98478.44;;;25.90;44.75
2675;BME280;1347;42.122;24.746;2023-04-25T11:46:19;98464.59;;;26.61;43.36
2675;BME280;1347;42.122;24.746;2023-04-25T11:48:46;98466.56;;;27.08;43.51
2675;BME280;1347;42.122;24.746;2023-04-25T11:51:17;98466.09;;;26.14;44.04
2675;BME280;1347;42.122;24.746;2023-04-25T11:53:44;98468.66;;;26.54;44.23
2675;BME280;1347;42.122;24.746;2023-04-25T11:56:11;98458.75;;;25.85;45.10
2675;BME280;1347;42.122;24.746;2023-04-25T11:58:55;98457.28;;;25.38;45.69
2675;BME280;1347;42.122;24.746;2023-04-25T12:01:27;98445.72;;;26.24;45.46
2675;BME280;1347;42.122;24.746;2023-04-25T12:03:54;98442.88;;;27.76;42.88
2675;BME280;1347;42.122;24.746;2023-04-25T12:06:26;98444.09;;;29.47;39.57
2675;BME280;1347;42.122;24.746;2023-04-25T12:09:00;98435.09;;;28.49;40.63
2675;BME280;1347;42.122;24.746;2023-04-25T12:11:29;98435.41;;;28.24;41.26
2675;BME280;1347;42.122;24.746;2023-04-25T12:14:01;98423.19;;;26.61;43.01
2675;BME280;1347;42.122;24.746;2023-04-25T12:16:28;98422.53;;;25.92;43.33
2675;BME280;1347;42.122;24.746;2023-04-25T12:18:56;98427.38;;;26.29;44.91
2675;BME280;1347;42.122;24.746;2023-04-25T12:21:29;98433.16;;;26.20;43.77
2675;BME280;1347;42.122;24.746;2023-04-25T12:24:09;98420.22;;;28.43;40.23
2675;BME280;1347;42.122;24.746;2023-04-25T12:26:46;98418.00;;;28.88;39.14
2675;BME280;1347;42.122;24.746;2023-04-25T12:29:16;98431.50;;;29.78;38.26
2675;BME280;1347;42.122;24.746;2023-04-25T12:31:43;98430.28;;;30.27;37.42
2675;BME280;1347;42.122;24.746;2023-04-25T12:34:14;98424.50;;;30.38;36.66
2675;BME280;1347;42.122;24.746;2023-04-25T12:36:46;98436.97;;;29.40;37.54
2675;BME280;1347;42.122;24.746;2023-04-25T12:39:17;98435.81;;;29.13;37.93
2675;BME280;1347;42.122;24.746;2023-04-25T12:41:45;98422.19;;;29.83;37.90
2675;BME280;1347;42.122;24.746;2023-04-25T12:44:12;98416.78;;;30.39;36.59
2675;BME280;1347;42.122;24.746;2023-04-25T12:46:39;98418.50;;;33.52;33.62
2675;BME280;1347;42.122;24.746;2023-04-25T12:49:07;98424.25;;;35.68;31.29
2675;BME280;1347;42.122;24.746;2023-04-25T12:51:35;98428.25;;;36.41;30.00
2675;BME280;1347;42.122;24.746;2023-04-25T12:54:04;98417.97;;;32.86;32.87
2675;BME280;1347;42.122;24.746;2023-04-25T12:56:32;98423.41;;;30.85;35.43
2675;BME280;1347;42.122;24.746;2023-04-25T12:58:59;98410.47;;;31.14;35.42
2675;BME280;1347;42.122;24.746;2023-04-25T13:01:26;98410.47;;;32.36;34.34
2675;BME280;1347;42.122;24.746;2023-04-25T13:03:53;98408.41;;;31.14;35.03
2675;BME280;1347;42.122;24.746;2023-04-25T13:06:20;98404.81;;;29.43;37.29
2675;BME280;1347;42.122;24.746;2023-04-25T13:08:47;98395.66;;;28.33;38.58
2675;BME280;1347;42.122;24.746;2023-04-25T13:11:16;98392.97;;;28.63;38.91
2675;BME280;1347;42.122;24.746;2023-04-25T13:13:43;98397.50;;;28.02;40.59